Time;durP1;ratioP1;P1;durP2;ratioP2;P2;SDS_P1;SDS_P2;PMS_P1;PMS_P2;Temp;Humidity;BMP_temperature;BMP_pressure;BME280_temperature;BME280_humidity;BME280_pressure;Samples;Min_cycle;Max_cycle;Signal;HPM_P1;HPM_P2
2023/12/25 00:02:04;;;;;;;;;3.00;3.00;;;;;13.01;69.77;101118.44;5006150;28;45395;-70
2023/12/25 00:04:30;;;;;;;;;5.33;4.00;;;;;12.70;69.85;101056.28;5014092;28;45439;-71
2023/12/25 00:06:57;;;;;;;;;6.33;5.00;;;;;13.03;70.07;101112.31;5018813;28;45299;-72
2023/12/25 00:09:22;;;;;;;;;6.33;6.33;;;;;13.05;69.84;101121.06;5014903;28;45413;-71
2023/12/25 00:11:49;;;;;;;;;9.67;6.67;;;;;12.97;69.86;101107.03;5016654;28;45831;-71
2023/12/25 00:14:15;;;;;;;;;8.00;5.00;;;;;13.06;69.48;101112.28;5011886;28;45456;-67
2023/12/25 00:16:41;;;;;;;;;6.67;3.00;;;;;12.86;70.09;101083.41;5007250;28;45515;-66
2023/12/25 00:19:07;;;;;;;;;10.00;4.67;;;;;13.11;69.66;101122.78;5011624;28;45754;-68
2023/12/25 00:21:33;;;;;;;;;8.00;4.67;;;;;13.07;69.92;101121.91;5008779;28;45436;-67
2023/12/25 00:23:59;;;;;;;;;8.33;4.67;;;;;13.10;69.33;101128.94;5004318;28;45490;-69
2023/12/25 00:26:24;;;;;;;;;8.67;3.00;;;;;13.06;69.79;101127.19;5009744;28;45414;-65
2023/12/25 00:28:50;;;;;;;;;5.33;4.00;;;;;13.08;69.67;101128.94;5007922;28;45491;-66
2023/12/25 00:31:15;;;;;;;;;8.33;5.00;;;;;13.08;70.11;101117.56;5013442;28;45360;-67
2023/12/25 00:33:41;;;;;;;;;6.67;3.00;;;;;13.08;69.90;101113.16;5010846;28;45393;-66
2023/12/25 00:36:15;;;;;;;;;6.33;3.67;;;;;12.89;69.73;101082.53;5014749;28;45506;-69
2023/12/25 00:38:40;;;;;;;;;7.67;6.33;;;;;13.08;71.45;101115.78;5030626;28;45566;-68
2023/12/25 00:41:06;;;;;;;;;9.00;4.00;;;;;13.10;70.70;101113.16;5018871;28;45527;-69
2023/12/25 00:43:32;;;;;;;;;10.00;5.00;;;;;12.91;70.45;101083.41;5049663;28;45225;-68
2023/12/25 00:45:58;;;;;;;;;8.00;4.00;;;;;13.05;70.28;101096.50;5000955;28;46218;-67
2023/12/25 00:48:24;;;;;;;;;7.00;3.33;;;;;13.00;70.03;101090.38;5012948;28;45580;-66
2023/12/25 00:50:49;;;;;;;;;5.33;4.00;;;;;12.95;69.97;101085.13;5003165;28;45296;-67
2023/12/25 00:53:15;;;;;;;;;7.00;3.00;;;;;13.11;70.41;101112.28;5011273;28;45360;-67
2023/12/25 00:55:41;;;;;;;;;7.33;2.33;;;;;13.09;70.34;101104.38;5002316;28;45534;-68
2023/12/25 00:58:12;;;;;;;;;5.00;3.00;;;;;13.08;69.90;101107.03;5005621;28;45850;-69
2023/12/25 01:00:41;;;;;;;;;2.00;2.00;;;;;13.08;70.21;101107.91;5005087;28;45479;-67
2023/12/25 01:03:07;;;;;;;;;10.67;4.33;;;;;12.97;70.28;101091.25;5001495;28;45453;-68
2023/12/25 01:05:36;;;;;;;;;4.67;4.00;;;;;12.73;70.87;101069.41;5005535;28;45576;-68
2023/12/25 01:08:02;;;;;;;;;7.00;2.00;;;;;13.06;71.10;101125.44;5009645;28;45466;-67
2023/12/25 01:10:32;;;;;;;;;3.33;3.33;;;;;12.97;70.88;101109.66;5005627;28;45415;-67
2023/12/25 01:12:57;;;;;;;;;3.33;3.00;;;;;12.41;70.91;101006.41;5015681;28;45629;-68
2023/12/25 01:15:23;;;;;;;;;5.00;5.00;;;;;12.82;71.33;101084.28;5016756;28;46081;-68
2023/12/25 01:17:48;;;;;;;;;8.67;3.00;;;;;13.01;71.20;101118.44;5012485;28;45547;-66
2023/12/25 01:20:15;;;;;;;;;6.33;4.67;;;;;12.96;71.52;101113.19;5010475;28;45578;-67
2023/12/25 01:22:40;;;;;;;;;6.33;4.67;;;;;13.01;71.68;101113.19;5012943;28;45544;-68
2023/12/25 01:25:07;;;;;;;;;5.67;3.00;;;;;13.00;71.96;101107.03;5005993;28;46066;-67
2023/12/25 01:27:33;;;;;;;;;6.33;4.00;;;;;12.92;71.59;101100.91;4999080;28;45304;-68
2023/12/25 01:30:08;;;;;;;;;5.00;3.00;;;;;12.99;71.61;101109.69;5007103;28;45526;-66
2023/12/25 01:32:45;;;;;;;;;6.00;4.00;;;;;12.96;71.98;101113.19;5011672;28;45486;-67
2023/12/25 01:35:12;;;;;;;;;7.00;3.67;;;;;12.86;71.88;101093.94;5009262;28;46249;-67
2023/12/25 01:37:37;;;;;;;;;9.33;4.00;;;;;12.86;72.42;101086.03;5006698;28;45885;-69
2023/12/25 01:40:03;;;;;;;;;9.00;4.00;;;;;12.95;72.44;101103.53;5009550;28;45407;-68
2023/12/25 01:42:29;;;;;;;;;7.33;4.00;;;;;12.93;72.23;101100.03;5006368;28;45357;-67
2023/12/25 01:44:54;;;;;;;;;7.00;3.00;;;;;12.93;72.06;101090.41;5014857;28;46268;-67
2023/12/25 01:47:21;;;;;;;;;7.00;3.67;;;;;12.98;72.32;101093.03;5006834;28;45450;-66
2023/12/25 01:49:47;;;;;;;;;5.67;4.67;;;;;13.00;72.64;101093.88;5010579;28;45573;-67
2023/12/25 01:52:13;;;;;;;;;9.00;5.00;;;;;12.96;72.32;101075.50;5009084;28;45558;-67
2023/12/25 01:54:40;;;;;;;;;5.00;3.00;;;;;12.96;72.41;101081.63;5009070;28;45389;-70
2023/12/25 01:57:18;;;;;;;;;6.33;4.33;;;;;12.82;72.59;101068.53;5010726;28;45820;-67
2023/12/25 01:59:44;;;;;;;;;8.67;4.00;;;;;12.97;72.31;101080.75;5008841;28;45420;-71
2023/12/25 02:02:12;;;;;;;;;6.67;3.00;;;;;12.90;72.34;101060.59;5011481;28;45430;-70
2023/12/25 02:04:38;;;;;;;;;3.00;3.00;;;;;12.84;72.29;101060.66;5006289;28;45560;-70
2023/12/25 02:07:03;;;;;;;;;6.33;3.67;;;;;12.99;72.48;101094.78;5010876;28;45501;-70
2023/12/25 02:09:29;;;;;;;;;6.67;4.33;;;;;12.88;72.18;101060.63;5006274;28;45400;-71
2023/12/25 02:11:54;;;;;;;;;7.33;3.33;;;;;12.91;72.39;101086.91;5013058;28;45534;-71
2023/12/25 02:14:20;;;;;;;;;3.00;3.00;;;;;12.87;72.62;101082.53;5018305;28;45551;-68
2023/12/25 02:16:47;;;;;;;;;3.67;2.67;;;;;12.93;72.64;101086.88;5018055;28;45649;-68
2023/12/25 02:19:26;;;;;;;;;4.67;3.33;;;;;12.81;72.64;101068.50;5018617;28;45568;-71
2023/12/25 02:21:55;;;;;;;;;5.67;4.00;;;;;12.78;72.79;101079.91;5018796;28;45667;-71
2023/12/25 02:24:28;;;;;;;;;6.67;3.00;;;;;12.38;72.77;101021.28;5016273;28;46975;-70
2023/12/25 02:26:53;;;;;;;;;5.33;3.67;;;;;12.91;73.14;101112.31;5016321;28;45420;-69
2023/12/25 02:29:19;;;;;;;;;5.67;2.67;;;;;12.67;72.76;101065.91;5017106;28;45540;-70
2023/12/25 02:31:48;;;;;;;;;6.33;3.00;;;;;12.97;73.13;101106.16;5018280;28;45523;-67
2023/12/25 02:34:14;;;;;;;;;6.67;2.33;;;;;12.70;72.57;101069.41;5016939;28;46061;-68
2023/12/25 02:36:43;;;;;;;;;3.33;3.00;;;;;12.63;73.30;101059.78;5016457;28;45496;-70
2023/12/25 02:39:09;;;;;;;;;5.67;3.00;;;;;12.72;73.81;101066.78;5017276;28;45347;-71
2023/12/25 02:41:38;;;;;;;;;5.00;3.67;;;;;12.95;73.31;101093.00;5017627;28;45336;-71
2023/12/25 02:44:03;;;;;;;;;6.00;4.00;;;;;12.68;73.25;101051.91;5015329;28;46400;-72
2023/12/25 02:46:29;;;;;;;;;4.67;3.00;;;;;12.87;73.45;101081.66;5016545;28;45418;-71
2023/12/25 02:48:54;;;;;;;;;7.33;3.33;;;;;12.87;73.17;101079.91;5017896;28;45460;-67
2023/12/25 02:51:20;;;;;;;;;7.00;4.33;;;;;12.91;73.15;101084.28;5019570;28;45395;-67
2023/12/25 02:53:46;;;;;;;;;6.50;3.00;;;;;13.01;72.88;101098.28;5017534;28;46135;-72
2023/12/25 02:56:12;;;;;;;;;3.00;3.00;;;;;12.99;73.25;101099.16;5017124;28;45344;-68
2023/12/25 02:58:38;;;;;;;;;6.67;4.00;;;;;12.90;73.53;101100.91;5015112;28;45487;-67
2023/12/25 03:01:03;;;;;;;;;6.00;3.00;;;;;13.02;73.14;101121.03;5018557;28;45791;-70
2023/12/25 03:03:29;;;;;;;;;4.00;3.33;;;;;12.72;73.24;101072.06;5020680;28;45989;-70
2023/12/25 03:05:55;;;;;;;;;2.33;2.00;;;;;12.61;73.09;101044.91;5018845;28;45481;-71
2023/12/25 03:08:21;;;;;;;;;1.00;0.00;;;;;12.93;73.55;101102.66;5019313;28;45387;-69
2023/12/25 03:10:46;;;;;;;;;4.33;2.00;;;;;13.02;73.50;101114.91;5017533;28;45300;-70
2023/12/25 03:13:12;;;;;;;;;6.00;4.00;;;;;12.96;73.42;101099.19;5017137;28;45530;-68
2023/12/25 03:15:39;;;;;;;;;4.33;3.33;;;;;12.86;73.77;101090.41;5016512;28;45497;-66
2023/12/25 03:18:05;;;;;;;;;4.00;3.00;;;;;12.97;74.24;101099.16;5016748;28;45617;-68
2023/12/25 03:20:30;;;;;;;;;7.33;5.00;;;;;12.93;73.92;101092.13;5015397;28;45517;-67
2023/12/25 03:22:56;;;;;;;;;4.00;4.00;;;;;12.93;74.20;101074.63;5015972;28;45937;-67
2023/12/25 03:25:29;;;;;;;;;3.67;2.33;;;;;12.83;74.19;101072.00;5015205;28;45447;-66
2023/12/25 03:27:54;;;;;;;;;10.33;4.00;;;;;12.78;74.11;101069.41;5016484;28;45477;-66
2023/12/25 03:30:20;;;;;;;;;4.00;2.33;;;;;12.87;74.16;101077.25;5015135;28;45565;-68
2023/12/25 03:32:45;;;;;;;;;6.00;3.67;;;;;12.92;74.88;101090.41;5015607;28;45662;-68
2023/12/25 03:35:11;;;;;;;;;2.67;2.67;;;;;12.93;74.43;101102.66;5017147;28;45480;-65
2023/12/25 03:37:36;;;;;;;;;9.00;5.00;;;;;12.92;74.62;101104.41;5016200;28;45288;-67
2023/12/25 03:40:02;;;;;;;;;3.67;3.67;;;;;12.93;74.57;101093.03;5016683;28;45413;-67
2023/12/25 03:42:28;;;;;;;;;8.33;4.00;;;;;12.89;74.98;101086.03;5016494;28;46139;-67
2023/12/25 03:44:54;;;;;;;;;7.67;4.00;;;;;12.97;74.70;101091.25;5017883;28;45605;-65
2023/12/25 03:47:20;;;;;;;;;2.67;2.00;;;;;12.65;74.77;101055.41;5017197;28;45358;-71
2023/12/25 03:49:46;;;;;;;;;3.00;3.00;;;;;12.96;75.49;101096.56;5016946;28;45459;-67
2023/12/25 03:52:11;;;;;;;;;4.00;3.00;;;;;12.98;74.72;101090.41;5015661;28;46086;-68
2023/12/25 03:54:37;;;;;;;;;6.33;3.00;;;;;12.92;74.77;101080.75;5015823;28;45403;-67
2023/12/25 03:57:06;;;;;;;;;3.00;3.00;;;;;12.87;74.82;101076.41;5016294;28;45391;-66
2023/12/25 03:59:32;;;;;;;;;3.00;2.33;;;;;12.86;75.04;101051.88;5031336;28;45285;-67
2023/12/25 04:01:58;;;;;;;;;6.33;2.00;;;;;12.92;74.76;101074.63;5015688;28;46004;-70
2023/12/25 04:04:23;;;;;;;;;6.67;3.00;;;;;12.87;74.61;101050.97;5017417;28;45312;-70
2023/12/25 04:06:50;;;;;;;;;2.33;2.33;;;;;12.96;74.95;101084.28;5017406;28;45309;-67
2023/12/25 04:09:16;;;;;;;;;2.00;2.00;;;;;12.96;75.22;101084.28;5016193;28;45237;-67
2023/12/25 04:11:42;;;;;;;;;4.00;3.00;;;;;12.87;75.43;101071.13;5017457;28;46047;-68
2023/12/25 04:14:08;;;;;;;;;1.33;1.33;;;;;12.56;75.24;101016.00;5017047;28;45392;-67
2023/12/25 04:16:37;;;;;;;;;3.00;2.00;;;;;12.78;74.97;101060.63;5016771;28;45486;-66
2023/12/25 04:19:02;;;;;;;;;6.33;2.33;;;;;12.77;75.22;101056.28;5016936;28;45505;-68
2023/12/25 04:21:33;;;;;;;;;2.00;1.67;;;;;12.95;75.08;101082.50;5014947;28;45631;-67
2023/12/25 04:24:03;;;;;;;;;4.00;1.33;;;;;12.94;74.80;101072.88;5000714;28;45513;-70
2023/12/25 04:26:29;;;;;;;;;4.00;3.00;;;;;12.93;74.59;101055.34;5014110;28;45567;-69
2023/12/25 04:28:55;;;;;;;;;3.00;2.00;;;;;12.88;74.93;101052.75;5015649;28;45438;-67
2023/12/25 04:31:20;;;;;;;;;3.67;2.00;;;;;12.98;74.81;101061.47;5015440;28;46840;-70
2023/12/25 04:33:52;;;;;;;;;1.33;1.33;;;;;13.00;75.11;101069.34;5007856;28;45751;-67
2023/12/25 04:36:18;;;;;;;;;2.67;2.33;;;;;12.95;75.40;101056.22;5034803;28;45356;-65
2023/12/25 04:39:00;;;;;;;;;2.33;1.00;;;;;13.00;74.91;101061.47;5020387;28;45324;-68
2023/12/25 04:41:27;;;;;;;;;3.00;2.00;;;;;13.00;74.95;101061.47;5021843;28;46623;-69
2023/12/25 04:43:53;;;;;;;;;4.33;1.33;;;;;13.01;75.38;101064.09;5020729;28;45445;-71
2023/12/25 04:46:19;;;;;;;;;1.33;1.33;;;;;13.01;74.89;101063.22;5020537;28;45476;-70
2023/12/25 04:48:45;;;;;;;;;4.00;1.00;;;;;12.92;74.85;101043.94;5021615;28;45533;-70
2023/12/25 04:51:11;;;;;;;;;2.00;2.00;;;;;13.04;75.21;101071.97;5022932;28;45277;-67
2023/12/25 04:53:36;;;;;;;;;2.67;1.00;;;;;13.00;74.94;101064.09;5020793;28;45433;-69
2023/12/25 04:56:03;;;;;;;;;4.00;2.00;;;;;13.04;74.89;101076.34;5019384;28;45433;-67
2023/12/25 04:58:28;;;;;;;;;3.00;0.67;;;;;13.00;75.38;101064.94;5019984;28;45566;-68
2023/12/25 05:00:54;;;;;;;;;3.33;1.00;;;;;13.02;75.23;101068.47;5018667;28;45560;-70
2023/12/25 05:03:21;;;;;;;;;4.00;1.00;;;;;13.05;75.18;101072.84;5018766;28;45533;-67
2023/12/25 05:05:48;;;;;;;;;3.67;2.00;;;;;13.02;75.52;101063.19;5019230;28;45573;-67
2023/12/25 05:08:18;;;;;;;;;3.67;2.00;;;;;12.98;75.20;101063.22;5019720;28;45536;-71
2023/12/25 05:10:44;;;;;;;;;1.33;1.33;;;;;13.04;74.83;101077.22;5052258;28;46612;-68
2023/12/25 05:13:10;;;;;;;;;2.00;2.00;;;;;13.04;75.18;101068.47;5018568;28;45445;-69
2023/12/25 05:15:35;;;;;;;;;1.00;1.00;;;;;13.05;74.51;101059.69;5018916;28;45435;-68
2023/12/25 05:18:02;;;;;;;;;2.00;2.00;;;;;12.59;74.92;100989.72;5019127;28;45368;-70
2023/12/25 05:20:29;;;;;;;;;1.67;1.67;;;;;13.02;75.38;101062.34;5017998;28;45686;-70
2023/12/25 05:22:54;;;;;;;;;2.67;1.00;;;;;12.92;74.79;101043.09;5017546;28;45533;-70
2023/12/25 05:25:20;;;;;;;;;1.67;1.00;;;;;13.01;75.12;101063.22;5016416;28;45459;-67
2023/12/25 05:27:46;;;;;;;;;3.67;1.00;;;;;13.00;74.94;101062.31;5017151;28;45630;-68
2023/12/25 05:30:12;;;;;;;;;2.00;0.67;;;;;12.99;74.76;101059.72;5018320;28;45449;-68
2023/12/25 05:32:38;;;;;;;;;1.00;0.67;;;;;12.57;74.85;100988.84;5012983;28;45489;-68
2023/12/25 05:35:04;;;;;;;;;1.00;1.00;;;;;12.98;74.84;101063.22;5015374;28;45342;-68
2023/12/25 05:37:30;;;;;;;;;2.00;1.00;;;;;12.94;75.01;101065.84;5019116;28;45572;-67
2023/12/25 05:39:56;;;;;;;;;2.67;0.00;;;;;12.98;75.19;101071.09;5018615;28;46365;-67
2023/12/25 05:42:22;;;;;;;;;1.00;1.00;;;;;12.86;75.09;101050.97;5018966;28;45316;-66
2023/12/25 05:44:47;;;;;;;;;0.33;0.33;;;;;12.96;74.82;101072.88;5017961;28;45308;-66
2023/12/25 05:47:13;;;;;;;;;0.00;0.00;;;;;12.93;75.17;101057.97;5018076;28;45453;-68
2023/12/25 05:49:39;;;;;;;;;0.00;0.00;;;;;12.97;75.60;101059.72;5017434;28;46035;-66
2023/12/25 05:52:04;;;;;;;;;1.00;0.33;;;;;12.94;74.93;101055.34;5017830;28;45317;-68
2023/12/25 05:54:33;;;;;;;;;0.67;0.33;;;;;12.87;75.17;101043.09;5016815;28;45528;-70
2023/12/25 05:56:59;;;;;;;;;1.00;1.00;;;;;12.90;74.98;101043.06;5035327;28;45630;-68
2023/12/25 05:59:27;;;;;;;;;1.33;0.00;;;;;12.94;74.57;101049.22;5018865;28;46243;-67
2023/12/25 06:01:53;;;;;;;;;2.33;0.00;;;;;12.99;75.07;101057.09;5019249;28;45395;-68
2023/12/25 06:04:18;;;;;;;;;1.00;1.00;;;;;12.98;75.12;101053.59;5018974;28;45494;-67
2023/12/25 06:06:53;;;;;;;;;1.00;0.67;;;;;13.01;74.74;101063.22;5018355;28;45260;-67
2023/12/25 06:09:20;;;;;;;;;2.00;0.67;;;;;12.74;74.79;101015.06;5022485;28;46604;-69
2023/12/25 06:11:49;;;;;;;;;0.00;0.00;;;;;12.99;75.04;101052.69;5018346;28;45373;-68
2023/12/25 06:14:14;;;;;;;;;3.00;0.00;;;;;13.00;74.61;101054.44;5019621;28;45379;-70
2023/12/25 06:16:40;;;;;;;;;0.67;0.00;;;;;12.96;74.90;101042.19;5018915;28;45478;-71
2023/12/25 06:19:05;;;;;;;;;1.00;0.00;;;;;12.96;75.05;101047.47;5033368;28;47923;-65
2023/12/25 06:21:31;;;;;;;;;0.33;0.00;;;;;12.68;74.74;100999.34;5018001;28;45433;-67
2023/12/25 06:23:58;;;;;;;;;0.00;0.00;;;;;13.02;75.12;101067.59;5020107;28;45509;-70
2023/12/25 06:26:23;;;;;;;;;1.00;0.00;;;;;12.97;74.82;101064.97;5020248;28;45620;-69
2023/12/25 06:29:05;;;;;;;;;;;;;;;;;;;;;
2023/12/25 06:31:31;;;;;;;;;2.33;0.33;;;;;12.59;75.36;101002.84;5010932;28;74392;-66
2023/12/25 06:33:57;;;;;;;;;1.33;0.67;;;;;13.00;75.23;101080.72;5004421;28;45736;-69
2023/12/25 06:36:24;;;;;;;;;0.00;0.00;;;;;12.88;75.07;101049.22;5012732;28;45418;-75
2023/12/25 06:38:50;;;;;;;;;0.00;0.00;;;;;12.81;74.74;101026.44;5013386;28;46309;-65
2023/12/25 06:41:15;;;;;;;;;1.00;0.00;;;;;13.02;75.31;101075.47;5010626;28;45419;-67
2023/12/25 06:43:41;;;;;;;;;1.00;0.00;;;;;13.01;75.48;101071.97;4996921;28;45387;-67
2023/12/25 06:46:07;;;;;;;;;0.00;0.00;;;;;13.05;75.53;101080.72;4998572;28;45724;-67
2023/12/25 06:48:32;;;;;;;;;0.00;0.00;;;;;13.06;75.39;101082.50;5010150;28;45958;-65
2023/12/25 06:50:58;;;;;;;;;1.00;1.00;;;;;12.97;75.00;101059.72;5005862;28;45475;-65
2023/12/25 06:53:27;;;;;;;;;2.00;2.00;;;;;12.67;75.83;101008.09;5007936;28;45387;-66
2023/12/25 06:55:59;;;;;;;;;0.00;0.00;;;;;12.93;75.04;101064.13;5009318;28;45614;-66
2023/12/25 06:58:43;;;;;;;;;0.67;0.00;;;;;13.04;75.46;101081.63;5004896;28;45444;-66
2023/12/25 07:01:09;;;;;;;;;1.33;1.00;;;;;12.96;75.52;101065.88;5001769;28;45461;-68
2023/12/25 07:03:38;;;;;;;;;0.00;0.00;;;;;12.81;75.42;101042.22;5007040;28;45567;-70
2023/12/25 07:06:08;;;;;;;;;0.00;0.00;;;;;13.01;75.47;101081.63;5002164;28;45645;-67
2023/12/25 07:08:34;;;;;;;;;0.00;0.00;;;;;13.02;76.00;101083.38;5017211;28;46119;-66
2023/12/25 07:11:00;;;;;;;;;0.00;0.00;;;;;13.03;75.67;101072.00;5005764;28;45648;-66
2023/12/25 07:13:33;;;;;;;;;0.00;0.00;;;;;12.74;75.80;101033.47;5002761;28;45548;-70
2023/12/25 07:16:00;;;;;;;;;2.33;0.00;;;;;13.05;75.81;101083.34;5014488;28;45604;-71
2023/12/25 07:18:26;;;;;;;;;3.00;0.00;;;;;12.77;75.57;101043.13;5004231;28;46690;-68
2023/12/25 07:20:52;;;;;;;;;0.00;0.00;;;;;13.00;75.67;101093.88;5002226;28;45753;-71
2023/12/25 07:23:18;;;;;;;;;2.00;0.00;;;;;12.96;76.11;101081.63;5004443;28;45494;-71
2023/12/25 07:25:58;;;;;;;;;0.00;0.00;;;;;12.95;75.75;101082.50;5003784;28;45601;-71
2023/12/25 07:28:24;;;;;;;;;0.67;0.00;;;;;12.81;75.63;101058.00;5007232;28;45599;-69
2023/12/25 07:30:57;;;;;;;;;2.00;0.00;;;;;12.93;75.82;101082.53;5005305;28;45844;-68
2023/12/25 07:33:26;;;;;;;;;2.00;0.00;;;;;12.92;75.66;101088.66;5008174;28;45636;-67
2023/12/25 07:35:52;;;;;;;;;0.00;0.00;;;;;13.03;75.91;101111.44;5006591;28;45626;-67
2023/12/25 07:38:19;;;;;;;;;0.67;0.67;;;;;13.03;75.89;101108.81;5013783;28;45529;-68
2023/12/25 07:40:52;;;;;;;;;1.33;0.00;;;;;13.02;75.58;101122.81;5046990;28;45292;-65
2023/12/25 07:43:17;;;;;;;;;0.00;0.00;;;;;13.02;75.81;101123.69;5016908;28;45643;-67
2023/12/25 07:45:48;;;;;;;;;0.00;0.00;;;;;13.04;75.71;101134.22;5013072;28;45536;-68
2023/12/25 07:48:13;;;;;;;;;0.00;0.00;;;;;13.06;75.68;101129.81;5015224;28;45893;-67
2023/12/25 07:50:51;;;;;;;;;0.33;0.00;;;;;12.98;76.00;101118.44;5005819;28;45526;-69
2023/12/25 07:53:17;;;;;;;;;0.00;0.00;;;;;13.07;75.37;101128.94;5010259;28;45308;-65
2023/12/25 07:55:43;;;;;;;;;0.00;0.00;;;;;13.07;75.34;101135.06;5015773;28;45280;-67
2023/12/25 07:58:37;;;;;;;;;0.00;0.00;;;;;13.05;75.07;101128.94;5016358;28;46053;-66
2023/12/25 08:01:03;;;;;;;;;0.00;0.00;;;;;13.04;75.06;101128.94;5010756;28;45493;-69
2023/12/25 08:03:35;;;;;;;;;0.00;0.00;;;;;13.06;75.10;101135.09;5010650;28;45296;-67
2023/12/25 08:06:02;;;;;;;;;1.00;1.00;;;;;13.06;75.29;101133.31;5013980;28;45509;-67
2023/12/25 08:08:30;;;;;;;;;0.00;0.00;;;;;12.91;75.12;101112.31;5011528;28;47543;-67
2023/12/25 08:10:55;;;;;;;;;2.00;0.00;;;;;13.05;74.91;101131.59;5014006;28;45457;-68
2023/12/25 08:13:24;;;;;;;;;1.00;1.00;;;;;12.94;74.99;101120.19;5005613;28;45375;-67
2023/12/25 08:15:51;;;;;;;;;0.00;0.00;;;;;13.00;74.88;101130.69;5010964;28;45830;-65
2023/12/25 08:18:23;;;;;;;;;0.00;0.00;;;;;12.89;74.98;101114.94;5016132;28;45458;-67
2023/12/25 08:21:07;;;;;;;;;0.00;0.00;;;;;13.02;74.90;101138.59;5018520;28;46610;-70
2023/12/25 08:23:41;;;;;;;;;0.00;0.00;;;;;13.02;74.70;101135.97;5047136;28;45517;-68
2023/12/25 08:26:11;;;;;;;;;0.00;0.00;;;;;13.04;75.21;101142.97;5009373;28;46176;-66
2023/12/25 08:28:52;;;;;;;;;0.00;0.00;;;;;12.49;74.30;101045.78;5000187;28;48208;-67
2023/12/25 08:31:18;;;;;;;;;2.67;1.00;;;;;12.96;74.74;101121.09;5004910;28;45517;-67
2023/12/25 08:33:47;;;;;;;;;5.00;0.00;;;;;12.75;74.99;101090.44;5006413;28;45491;-66
2023/12/25 08:36:12;;;;;;;;;3.00;0.00;;;;;13.02;75.01;101141.22;5014199;28;45448;-68
2023/12/25 08:38:38;;;;;;;;;0.00;0.00;;;;;12.78;74.61;101090.41;5014916;28;48036;-70
2023/12/25 08:41:06;;;;;;;;;0.00;0.00;;;;;12.42;74.39;101038.78;5006175;28;45334;-66
2023/12/25 08:43:43;;;;;;;;;0.00;0.00;;;;;13.02;74.42;101138.59;5003807;28;45779;-66
2023/12/25 08:46:09;;;;;;;;;0.00;0.00;;;;;12.60;74.61;101066.78;5011656;28;45499;-68
2023/12/25 08:48:41;;;;;;;;;0.00;0.00;;;;;13.01;74.24;101145.59;5006587;28;46267;-67
2023/12/25 08:51:08;;;;;;;;;1.00;1.00;;;;;13.00;74.42;101150.84;5006584;28;45537;-67
2023/12/25 08:53:33;;;;;;;;;2.00;0.67;;;;;12.80;74.06;101112.31;5010554;28;45663;-67
2023/12/25 08:56:01;;;;;;;;;0.00;0.00;;;;;12.85;73.75;101121.09;5016621;28;46135;-66
2023/12/25 08:58:27;;;;;;;;;0.00;0.00;;;;;12.85;73.63;101123.72;5012819;28;45658;-66
2023/12/25 09:00:52;;;;;;;;;0.00;0.00;;;;;13.08;73.36;101164.88;5015918;28;45418;-69
2023/12/25 09:03:18;;;;;;;;;0.67;0.67;;;;;13.05;73.24;101157.88;5011897;28;45565;-70
2023/12/25 09:05:44;;;;;;;;;0.33;0.00;;;;;13.01;73.24;101152.63;5013396;28;45539;-68
2023/12/25 09:08:13;;;;;;;;;0.00;0.00;;;;;13.08;73.58;101162.25;5009488;28;46208;-68
2023/12/25 09:10:39;;;;;;;;;1.00;0.00;;;;;12.86;73.55;101114.97;5014497;28;45418;-68
2023/12/25 09:13:05;;;;;;;;;1.00;0.00;;;;;13.00;72.94;101141.22;5011396;28;45483;-72
2023/12/25 09:15:30;;;;;;;;;1.00;0.00;;;;;13.14;72.84;101160.50;5014229;28;45371;-70
2023/12/25 09:17:56;;;;;;;;;0.00;0.00;;;;;12.86;73.53;101121.94;5013420;28;46242;-70
2023/12/25 09:20:22;;;;;;;;;0.33;0.00;;;;;13.14;73.66;101176.28;5010648;28;45491;-65
2023/12/25 09:22:48;;;;;;;;;1.00;0.00;;;;;12.78;73.58;101107.94;5014448;28;45557;-68
2023/12/25 09:25:13;;;;;;;;;0.00;0.00;;;;;12.38;73.86;101031.78;5011560;28;45482;-69
2023/12/25 09:27:41;;;;;;;;;0.00;0.00;;;;;13.15;73.20;101166.63;5014582;28;46338;-68
2023/12/25 09:30:08;;;;;;;;;0.00;0.00;;;;;13.20;73.54;101177.16;5010379;28;45356;-69
2023/12/25 09:32:34;;;;;;;;;2.00;0.33;;;;;13.11;73.66;101192.03;5013602;28;45470;-67
2023/12/25 09:34:59;;;;;;;;;0.00;0.00;;;;;13.08;73.87;101184.16;5011488;28;45404;-71
2023/12/25 09:37:29;;;;;;;;;0.00;0.00;;;;;12.68;73.63;101128.97;5012165;28;46119;-71
2023/12/25 09:39:54;;;;;;;;;0.00;0.00;;;;;13.09;74.01;101190.28;5017784;28;45408;-68
2023/12/25 09:42:21;;;;;;;;;0.00;0.00;;;;;13.16;73.90;101200.78;5017585;28;45808;-67
2023/12/25 09:44:53;;;;;;;;;0.00;0.00;;;;;13.14;73.92;101197.31;5018689;28;45474;-68
2023/12/25 09:47:19;;;;;;;;;0.00;0.00;;;;;13.00;74.03;101167.50;5016218;28;46939;-71
2023/12/25 09:49:45;;;;;;;;;1.00;0.00;;;;;12.97;74.80;101172.78;5018199;28;45381;-69
2023/12/25 09:52:12;;;;;;;;;0.33;0.33;;;;;13.16;74.32;101203.44;5032517;28;46009;-71
2023/12/25 09:54:42;;;;;;;;;1.00;0.00;;;;;13.09;75.37;101196.41;5018032;28;45440;-71
2023/12/25 09:57:15;;;;;;;;;0.00;0.00;;;;;12.89;75.30;101153.50;5017511;28;46392;-72
2023/12/25 09:59:44;;;;;;;;;0.00;0.00;;;;;13.13;76.23;101199.94;5049776;28;45437;-69
2023/12/25 10:02:13;;;;;;;;;1.33;0.00;;;;;13.10;76.43;101203.44;5017374;28;45189;-70
2023/12/25 10:04:45;;;;;;;;;0.00;0.00;;;;;12.79;77.11;101149.13;5017952;28;45418;-70
2023/12/25 10:07:11;;;;;;;;;2.00;0.00;;;;;13.03;77.42;101198.22;5016923;28;46093;-71
2023/12/25 10:09:38;;;;;;;;;0.00;0.00;;;;;13.09;77.66;101220.09;5018213;28;45661;-69
2023/12/25 10:12:05;;;;;;;;;1.00;0.00;;;;;13.13;77.39;101213.09;5018179;28;45471;-68
2023/12/25 10:14:30;;;;;;;;;0.33;0.00;;;;;12.66;77.68;101124.59;5017498;28;45429;-68
2023/12/25 10:16:58;;;;;;;;;0.67;0.00;;;;;12.87;77.81;101165.78;5017167;28;46295;-67
2023/12/25 10:19:24;;;;;;;;;2.00;1.00;;;;;13.18;77.65;101211.31;4998311;28;45451;-66
2023/12/25 10:21:52;;;;;;;;;1.00;1.00;;;;;13.12;78.11;101191.19;4997361;28;45496;-67
2023/12/25 10:24:24;;;;;;;;;1.67;0.00;;;;;13.02;78.25;101165.75;4996282;28;45599;-63
2023/12/25 10:26:50;;;;;;;;;1.00;1.00;;;;;13.11;78.25;101178.88;4997329;28;45344;-66
2023/12/25 10:29:17;;;;;;;;;0.00;0.00;;;;;12.90;78.03;101147.38;4996795;28;45486;-66
2023/12/25 10:31:44;;;;;;;;;2.00;1.00;;;;;13.30;78.06;101199.94;4998884;28;45407;-67
2023/12/25 10:34:10;;;;;;;;;4.00;1.00;;;;;12.68;77.60;101100.06;4998484;28;45559;-68
2023/12/25 10:36:38;;;;;;;;;2.00;1.00;;;;;13.06;77.97;101149.09;4996736;28;46386;-66
2023/12/25 10:39:04;;;;;;;;;0.00;0.00;;;;;13.07;77.46;101150.84;5013643;28;45345;-65
2023/12/25 10:41:34;;;;;;;;;0.00;0.00;;;;;12.91;77.57;101113.19;5016802;28;45319;-67
2023/12/25 10:44:02;;;;;;;;;1.00;0.67;;;;;13.45;77.28;101199.03;5013077;28;45406;-67
2023/12/25 10:46:37;;;;;;;;;2.67;1.00;;;;;13.44;77.26;101202.56;5017925;28;46404;-67
2023/12/25 10:49:06;;;;;;;;;0.67;0.67;;;;;13.39;77.81;101217.47;5017317;28;46949;-66
2023/12/25 10:51:34;;;;;;;;;0.33;0.33;;;;;13.38;77.82;101192.03;5016474;28;45482;-67
2023/12/25 10:54:01;;;;;;;;;1.67;0.33;;;;;12.78;78.11;101102.69;5033047;28;45989;-66
2023/12/25 10:56:30;;;;;;;;;1.00;1.00;;;;;13.15;77.88;101158.75;5016181;28;47997;-65
2023/12/25 10:59:06;;;;;;;;;1.00;1.00;;;;;13.13;78.14;101166.63;5016665;28;45486;-66
2023/12/25 11:01:37;;;;;;;;;1.00;0.33;;;;;13.28;77.92;101180.66;5009151;28;45490;-66
2023/12/25 11:04:03;;;;;;;;;2.33;1.33;;;;;13.26;78.39;101183.25;5004523;28;45569;-65
2023/12/25 11:06:29;;;;;;;;;2.00;1.00;;;;;13.28;78.31;101180.66;5000411;28;47077;-66
2023/12/25 11:08:55;;;;;;;;;1.00;1.00;;;;;13.29;78.16;101177.16;5002573;28;45513;-65
2023/12/25 11:11:23;;;;;;;;;2.67;1.00;;;;;13.30;78.67;101173.63;5004175;28;45486;-67
2023/12/25 11:13:56;;;;;;;;;1.67;1.67;;;;;13.03;78.09;101119.31;5001839;28;45524;-66
2023/12/25 11:16:23;;;;;;;;;3.33;2.00;;;;;13.46;78.57;101169.22;5002401;28;45985;-67
2023/12/25 11:18:50;;;;;;;;;5.67;1.67;;;;;13.39;78.25;101135.91;5002015;28;45545;-67
2023/12/25 11:21:19;;;;;;;;;2.00;2.00;;;;;13.58;77.90;101154.25;5006218;28;45537;-67
2023/12/25 11:23:48;;;;;;;;;4.00;2.00;;;;;13.55;77.03;101148.16;4999972;28;45561;-69
2023/12/25 11:26:17;;;;;;;;;2.33;1.67;;;;;13.54;77.79;101152.50;5005063;28;45443;-68
2023/12/25 11:29:00;;;;;;;;;3.00;1.33;;;;;13.63;77.08;101156.00;5008705;28;45503;-68